createdAt,value
2018-07-28T00:02:01.518Z,20.70
2018-07-28T00:04:30.649Z,20.70
2018-07-28T00:06:59.280Z,20.70
2018-07-28T00:09:27.795Z,20.60
2018-07-28T00:11:56.419Z,20.50
2018-07-28T00:14:24.929Z,20.50
2018-07-28T00:16:53.619Z,20.50
2018-07-28T00:19:22.036Z,20.50
2018-07-28T00:21:50.438Z,20.50
2018-07-28T00:24:18.881Z,20.40
2018-07-28T00:26:47.261Z,20.40
2018-07-28T00:29:15.648Z,20.40
2018-07-28T00:31:44.039Z,20.40
2018-07-28T00:34:12.540Z,20.50
2018-07-28T00:36:40.930Z,20.50
2018-07-28T00:39:11.964Z,20.50
2018-07-28T00:41:40.444Z,20.50
2018-07-28T00:44:09.293Z,20.40
2018-07-28T00:46:37.675Z,20.40
2018-07-28T00:49:06.944Z,20.40
2018-07-28T00:51:35.514Z,20.40
2018-07-28T00:54:04.218Z,20.40
2018-07-28T00:56:33.099Z,20.40
2018-07-28T01:01:29.874Z,20.40
2018-07-28T01:03:58.327Z,20.40
2018-07-28T01:06:26.768Z,20.40
2018-07-28T01:08:55.152Z,20.50
2018-07-28T01:11:25.365Z,20.50
2018-07-28T01:13:53.765Z,20.50
2018-07-28T01:16:22.441Z,20.50
2018-07-28T01:18:51.312Z,20.50
2018-07-28T01:21:19.856Z,20.50
2018-07-28T01:23:48.540Z,20.40
2018-07-28T01:26:17.202Z,20.40
2018-07-28T01:28:49.848Z,20.40
2018-07-28T01:31:18.932Z,20.40
2018-07-28T01:33:47.564Z,20.40
2018-07-28T01:36:15.961Z,20.30
2018-07-28T01:38:44.356Z,20.40
2018-07-28T01:41:12.768Z,20.40
2018-07-28T01:43:41.253Z,20.30
2018-07-28T01:46:09.882Z,20.30
2018-07-28T01:48:38.360Z,20.20
2018-07-28T01:51:06.906Z,20.30
2018-07-28T01:53:35.336Z,20.20
2018-07-28T01:56:03.777Z,20.20
2018-07-28T01:58:32.172Z,20.20
2018-07-28T02:01:00.892Z,20.20
2018-07-28T02:03:30.581Z,20.20
2018-07-28T02:05:59.051Z,20.20
2018-07-28T02:08:27.485Z,20.20
2018-07-28T02:10:56.018Z,20.20
2018-07-28T02:13:24.445Z,20.20
2018-07-28T02:15:53.228Z,20.10
2018-07-28T02:18:21.621Z,20.00
2018-07-28T02:20:50.729Z,20.00
2018-07-28T02:23:19.141Z,20.00
2018-07-28T02:25:47.731Z,20.00
2018-07-28T02:28:17.568Z,20.00
2018-07-28T02:30:46.037Z,19.90
2018-07-28T02:33:14.442Z,19.90
2018-07-28T02:35:42.865Z,19.90
2018-07-28T02:38:11.540Z,19.90
2018-07-28T02:40:39.986Z,19.90
2018-07-28T02:43:08.381Z,19.90
2018-07-28T02:45:37.137Z,19.80
2018-07-28T02:48:05.744Z,19.90
2018-07-28T02:50:34.189Z,19.90
2018-07-28T02:53:02.852Z,19.90
2018-07-28T02:55:31.308Z,19.80
2018-07-28T02:57:59.719Z,19.80
2018-07-28T03:00:28.307Z,19.80
2018-07-28T03:02:56.734Z,19.80
2018-07-28T03:05:25.156Z,19.80
2018-07-28T03:07:54.936Z,19.80
2018-07-28T03:10:23.739Z,19.80
2018-07-28T03:12:52.654Z,19.80
2018-07-28T03:15:34.788Z,19.80
2018-07-28T03:18:06.038Z,19.80
2018-07-28T03:20:34.738Z,19.70
2018-07-28T03:23:03.883Z,19.70
2018-07-28T03:25:32.380Z,19.70
2018-07-28T03:28:00.780Z,19.70
2018-07-28T03:30:29.228Z,19.70
2018-07-28T03:32:57.887Z,19.70
2018-07-28T03:35:26.512Z,19.60
2018-07-28T03:37:54.906Z,19.60
2018-07-28T03:40:23.791Z,19.60
2018-07-28T03:42:52.305Z,19.70
2018-07-28T03:45:20.806Z,19.70
2018-07-28T03:47:49.271Z,19.80
2018-07-28T03:50:17.776Z,19.90
2018-07-28T03:52:46.228Z,20.00
2018-07-28T03:55:14.864Z,20.00
2018-07-28T04:00:12.946Z,20.20
2018-07-28T04:02:41.380Z,20.30
2018-07-28T04:05:11.395Z,20.30
2018-07-28T04:07:40.368Z,20.40
2018-07-28T04:10:09.946Z,20.50
2018-07-28T04:12:38.895Z,20.50
2018-07-28T04:15:09.304Z,20.60
2018-07-28T04:17:44.335Z,20.70
2018-07-28T04:20:12.884Z,20.70
2018-07-28T04:22:41.315Z,20.80
2018-07-28T04:25:09.708Z,21.00
2018-07-28T04:27:38.124Z,21.00
2018-07-28T04:30:07.021Z,21.10
2018-07-28T04:32:35.492Z,21.20
2018-07-28T04:35:04.240Z,21.30
2018-07-28T04:37:32.664Z,21.40
2018-07-28T04:40:01.344Z,21.50
2018-07-28T04:42:29.840Z,21.60
2018-07-28T04:44:58.378Z,21.70
2018-07-28T04:47:27.173Z,21.80
2018-07-28T04:49:55.936Z,21.90
2018-07-28T04:52:24.345Z,22.00
2018-07-28T04:54:52.757Z,22.00
2018-07-28T04:57:21.166Z,22.10
2018-07-28T04:59:49.792Z,22.20
2018-07-28T05:02:18.244Z,22.30
2018-07-28T05:04:46.675Z,22.40
2018-07-28T05:07:15.761Z,22.50
2018-07-28T05:09:44.164Z,22.60
2018-07-28T05:12:12.645Z,22.60
2018-07-28T05:14:41.272Z,22.70
2018-07-28T05:17:09.795Z,22.80
2018-07-28T05:19:39.087Z,22.70
2018-07-28T05:22:07.716Z,22.70
2018-07-28T05:24:36.789Z,22.80
2018-07-28T05:27:05.370Z,22.80
2018-07-28T05:29:34.674Z,22.80
2018-07-28T05:32:03.199Z,22.90
2018-07-28T05:34:31.791Z,22.90
2018-07-28T05:37:00.423Z,23.00
2018-07-28T05:39:29.168Z,23.00
2018-07-28T05:41:57.589Z,23.10
2018-07-28T05:44:26.074Z,23.20
2018-07-28T05:46:54.693Z,23.20
2018-07-28T05:49:23.244Z,23.30
2018-07-28T05:51:51.885Z,23.40
2018-07-28T05:54:20.297Z,23.50
2018-07-28T05:56:48.777Z,23.50
2018-07-28T05:59:17.193Z,23.60
2018-07-28T06:01:45.641Z,23.60
2018-07-28T06:04:14.118Z,23.70
2018-07-28T06:06:42.604Z,23.70
2018-07-28T06:09:11.520Z,23.80
2018-07-28T06:11:40.348Z,23.90
2018-07-28T06:14:08.926Z,24.00
2018-07-28T06:16:37.642Z,24.10
2018-07-28T06:19:06.059Z,24.20
2018-07-28T06:21:34.591Z,24.20
2018-07-28T06:24:03.034Z,24.30
2018-07-28T06:26:31.486Z,24.30
2018-07-28T06:29:00.124Z,24.40
2018-07-28T06:31:28.623Z,24.50
2018-07-28T06:33:57.005Z,24.50
2018-07-28T06:36:25.517Z,24.60
2018-07-28T06:38:54.106Z,24.70
2018-07-28T06:41:22.702Z,24.80
2018-07-28T06:43:51.135Z,24.80
2018-07-28T06:46:19.587Z,24.80
2018-07-28T06:48:48.045Z,24.90
2018-07-28T06:51:16.716Z,25.00
2018-07-28T06:53:45.918Z,25.00
2018-07-28T06:56:14.275Z,25.20
2018-07-28T06:58:43.060Z,25.30
2018-07-28T07:01:11.601Z,25.40
2018-07-28T07:03:40.089Z,25.40
2018-07-28T07:06:08.505Z,25.50
2018-07-28T07:08:37.164Z,25.60
2018-07-28T07:11:05.564Z,25.70
2018-07-28T07:16:03.294Z,25.80
2018-07-28T07:18:32.287Z,25.90
2018-07-28T07:21:00.835Z,25.90
2018-07-28T07:23:29.571Z,25.90
2018-07-28T07:25:58.238Z,26.00
2018-07-28T07:28:26.950Z,26.00
2018-07-28T07:30:55.953Z,26.00
2018-07-28T07:33:24.479Z,26.10
2018-07-28T07:35:53.128Z,26.20
2018-07-28T07:38:21.658Z,26.30
2018-07-28T07:40:50.133Z,26.40
2018-07-28T07:43:19.419Z,26.50
2018-07-28T07:45:48.642Z,26.60
2018-07-28T07:48:17.437Z,26.70
2018-07-28T07:50:46.137Z,26.80
2018-07-28T07:53:15.060Z,26.90
2018-07-28T07:55:43.493Z,27.00
2018-07-28T07:58:12.162Z,27.00
2018-07-28T08:00:41.233Z,27.10
2018-07-28T08:03:09.668Z,27.20
2018-07-28T08:05:39.202Z,27.20
2018-07-28T08:08:08.258Z,27.30
2018-07-28T08:10:36.793Z,27.40
2018-07-28T08:13:05.470Z,27.40
2018-07-28T08:15:34.039Z,27.50
2018-07-28T08:18:02.681Z,27.60
2018-07-28T08:20:31.234Z,27.70
2018-07-28T08:22:59.827Z,27.70
2018-07-28T08:25:28.809Z,27.80
2018-07-28T08:27:57.273Z,27.90
2018-07-28T08:30:26.203Z,27.90
2018-07-28T08:32:54.647Z,28.00
2018-07-28T08:37:52.256Z,28.20
2018-07-28T08:40:20.701Z,28.20
2018-07-28T08:42:49.346Z,28.30
2018-07-28T08:45:17.976Z,28.40
2018-07-28T08:47:46.689Z,28.40
2018-07-28T08:50:15.561Z,28.50
2018-07-28T08:52:44.133Z,28.60
2018-07-28T08:55:12.533Z,28.60
2018-07-28T08:57:40.955Z,28.60
2018-07-28T09:00:10.086Z,28.70
2018-07-28T09:02:38.568Z,28.80
2018-07-28T09:05:07.189Z,28.80
2018-07-28T09:07:35.697Z,29.00
2018-07-28T09:10:04.770Z,29.00
2018-07-28T09:12:33.279Z,29.10
2018-07-28T09:15:01.794Z,29.10
2018-07-28T09:17:30.521Z,29.20
2018-07-28T09:19:59.527Z,29.20
2018-07-28T09:22:28.145Z,29.30
2018-07-28T09:24:57.078Z,29.40
2018-07-28T09:27:25.510Z,29.40
2018-07-28T09:29:53.977Z,29.50
2018-07-28T09:32:22.510Z,29.50
2018-07-28T09:34:51.028Z,29.60
2018-07-28T09:37:19.472Z,29.60
2018-07-28T09:39:47.984Z,29.70
2018-07-28T09:42:16.833Z,29.70
2018-07-28T09:44:45.969Z,29.70
2018-07-28T09:47:14.427Z,29.80
2018-07-28T09:49:43.258Z,29.70
2018-07-28T09:52:12.294Z,29.70
2018-07-28T09:54:40.908Z,29.80
2018-07-28T09:57:09.342Z,29.80
2018-07-28T09:59:37.937Z,29.90
2018-07-28T10:02:06.915Z,29.90
2018-07-28T10:04:35.943Z,29.90
2018-07-28T10:07:04.617Z,30.00
2018-07-28T10:09:33.112Z,30.00
2018-07-28T10:12:01.750Z,30.00
2018-07-28T10:14:30.201Z,29.90
2018-07-28T10:16:58.637Z,29.90
2018-07-28T10:19:27.732Z,29.90
2018-07-28T10:21:56.171Z,29.90
2018-07-28T10:24:24.924Z,29.90
2018-07-28T10:26:53.352Z,29.90
2018-07-28T10:29:28.053Z,29.90
2018-07-28T10:31:56.631Z,30.00
2018-07-28T10:34:25.331Z,29.90
2018-07-28T10:36:53.816Z,30.00
2018-07-28T10:39:22.351Z,30.00
2018-07-28T10:41:50.930Z,30.00
2018-07-28T10:44:20.256Z,30.00
2018-07-28T10:46:48.701Z,30.10
2018-07-28T10:49:17.076Z,30.10
2018-07-28T10:51:45.554Z,30.10
2018-07-28T10:54:13.940Z,30.10
2018-07-28T10:56:42.479Z,30.10
2018-07-28T10:59:10.927Z,30.10
2018-07-28T11:01:39.370Z,30.10
2018-07-28T11:04:08.290Z,30.10
2018-07-28T11:06:37.264Z,30.10
2018-07-28T11:09:08.260Z,30.10
2018-07-28T11:11:36.811Z,30.10
2018-07-28T11:14:06.299Z,30.10
2018-07-28T11:16:34.793Z,30.00
2018-07-28T11:19:03.876Z,29.80
2018-07-28T11:21:32.297Z,29.60
2018-07-28T11:24:01.978Z,29.70
2018-07-28T11:28:58.943Z,29.70
2018-07-28T11:31:39.102Z,29.60
2018-07-28T11:36:53.418Z,29.40
2018-07-28T11:39:33.014Z,29.30
2018-07-28T11:42:13.029Z,29.30
2018-07-28T11:44:52.872Z,29.30
2018-07-28T11:47:21.346Z,29.30
2018-07-28T11:49:49.793Z,29.40
2018-07-28T11:52:18.201Z,29.40
2018-07-28T11:54:46.814Z,29.40
2018-07-28T11:57:15.321Z,29.50
2018-07-28T11:59:43.914Z,29.60
2018-07-28T12:02:12.710Z,29.70
2018-07-28T12:04:41.173Z,30.00
2018-07-28T12:07:09.572Z,30.20
2018-07-28T12:09:38.065Z,30.30
2018-07-28T12:12:07.668Z,30.40
2018-07-28T12:14:36.265Z,30.50
2018-07-28T12:17:04.812Z,30.60
2018-07-28T12:19:33.515Z,30.60
2018-07-28T12:22:01.943Z,30.60
2018-07-28T12:24:30.555Z,30.70
2018-07-28T12:26:59.012Z,30.70
2018-07-28T12:29:27.530Z,30.70
2018-07-28T12:31:55.991Z,30.70
2018-07-28T12:34:24.614Z,30.70
2018-07-28T12:36:53.315Z,30.80
2018-07-28T12:39:21.802Z,30.80
2018-07-28T12:41:50.813Z,30.80
2018-07-28T12:44:19.237Z,30.90
2018-07-28T12:46:47.838Z,30.90
2018-07-28T12:49:16.481Z,31.00
2018-07-28T12:51:44.897Z,31.00
2018-07-28T12:54:13.490Z,30.90
2018-07-28T12:56:42.433Z,30.90
2018-07-28T12:59:10.889Z,30.90
2018-07-28T13:01:39.895Z,30.80
2018-07-28T13:04:09.327Z,30.80
2018-07-28T13:09:09.292Z,30.80
2018-07-28T13:11:37.787Z,31.10
2018-07-28T13:14:06.310Z,31.70
2018-07-28T13:16:34.954Z,32.70
2018-07-28T13:19:03.495Z,33.60
2018-07-28T13:21:31.967Z,34.80
2018-07-28T13:26:28.631Z,36.60
2018-07-28T13:28:57.182Z,36.20
2018-07-28T13:31:26.064Z,36.70
2018-07-28T13:33:55.265Z,37.70
2018-07-28T13:36:24.182Z,38.30
2018-07-28T13:38:52.662Z,38.80
2018-07-28T13:41:21.283Z,39.30
2018-07-28T13:43:49.884Z,39.90
2018-07-28T13:46:18.414Z,40.40
2018-07-28T13:48:47.030Z,40.90
2018-07-28T13:51:15.440Z,41.40
2018-07-28T13:53:43.823Z,41.90
2018-07-28T13:56:12.498Z,42.40
2018-07-28T13:58:41.512Z,42.90
2018-07-28T14:01:10.216Z,43.30
2018-07-28T14:03:38.711Z,41.80
2018-07-28T14:06:07.876Z,41.90
2018-07-28T14:08:36.272Z,42.80
2018-07-28T14:11:04.718Z,43.40
2018-07-28T14:13:33.544Z,43.00
2018-07-28T14:16:02.029Z,44.00
2018-07-28T14:20:58.817Z,44.90
2018-07-28T14:23:27.280Z,45.30
2018-07-28T14:25:55.721Z,45.70
2018-07-28T14:28:24.116Z,46.00
2018-07-28T14:30:52.936Z,46.10
2018-07-28T14:33:21.356Z,46.40
2018-07-28T14:35:50.134Z,46.10
2018-07-28T14:38:18.813Z,45.60
2018-07-28T14:40:47.441Z,44.20
2018-07-28T14:43:16.338Z,42.90
2018-07-28T14:48:13.056Z,40.60
2018-07-28T14:50:41.668Z,39.60
2018-07-28T14:53:10.414Z,38.80
2018-07-28T14:55:39.248Z,38.10
2018-07-28T14:58:07.913Z,37.50
2018-07-28T15:00:36.804Z,36.90
2018-07-28T15:03:06.511Z,36.40
2018-07-28T15:05:34.938Z,36.00
2018-07-28T15:08:03.801Z,35.60
2018-07-28T15:10:32.976Z,35.20
2018-07-28T15:13:01.741Z,34.90
2018-07-28T15:15:30.417Z,34.60
2018-07-28T15:17:59.203Z,34.30
2018-07-28T15:20:27.678Z,34.00
2018-07-28T15:22:56.397Z,33.80
2018-07-28T15:25:25.016Z,33.60
2018-07-28T15:27:54.411Z,33.40
2018-07-28T15:30:22.830Z,33.10
2018-07-28T15:32:51.405Z,33.00
2018-07-28T15:37:48.912Z,32.80
2018-07-28T15:40:17.375Z,32.90
2018-07-28T15:42:46.177Z,32.90
2018-07-28T15:45:15.373Z,33.00
2018-07-28T15:47:44.073Z,33.10
2018-07-28T15:50:12.527Z,33.30
2018-07-28T15:52:41.201Z,35.40
2018-07-28T15:55:09.732Z,34.90
2018-07-28T15:57:38.448Z,34.70
2018-07-28T16:00:06.877Z,34.40
2018-07-28T16:02:35.495Z,34.10
2018-07-28T16:05:04.851Z,33.80
2018-07-28T16:07:33.484Z,33.40
2018-07-28T16:10:02.229Z,33.10
2018-07-28T16:12:30.724Z,32.90
2018-07-28T16:14:59.289Z,32.60
2018-07-28T16:17:28.030Z,32.30
2018-07-28T16:19:56.992Z,32.10
2018-07-28T16:22:25.525Z,31.90
2018-07-28T16:24:54.249Z,31.70
2018-07-28T16:27:22.672Z,31.60
2018-07-28T16:29:51.300Z,31.50
2018-07-28T16:32:19.999Z,31.30
2018-07-28T16:34:48.450Z,31.20
2018-07-28T16:37:16.901Z,31.10
2018-07-28T16:39:45.442Z,31.00
2018-07-28T16:42:14.798Z,30.90
2018-07-28T16:44:43.479Z,30.80
2018-07-28T16:47:12.155Z,30.80
2018-07-28T16:49:41.102Z,30.80
2018-07-28T16:52:09.705Z,30.80
2018-07-28T16:54:38.257Z,30.90
2018-07-28T16:57:06.736Z,30.90
2018-07-28T16:59:35.355Z,30.80
2018-07-28T17:02:04.210Z,30.80
2018-07-28T17:04:32.987Z,30.70
2018-07-28T17:07:02.226Z,30.60
2018-07-28T17:09:30.683Z,30.50
2018-07-28T17:11:59.165Z,30.30
2018-07-28T17:14:27.606Z,30.20
2018-07-28T17:16:56.145Z,30.10
2018-07-28T17:19:24.564Z,30.00
2018-07-28T17:21:53.112Z,29.80
2018-07-28T17:24:23.388Z,29.80
2018-07-28T17:26:52.020Z,29.70
2018-07-28T17:29:20.531Z,29.60
2018-07-28T17:31:48.982Z,29.50
2018-07-28T17:34:17.427Z,29.40
2018-07-28T17:36:45.837Z,29.30
2018-07-28T17:39:14.426Z,29.30
2018-07-28T17:41:44.107Z,29.20
2018-07-28T17:44:12.924Z,29.10
2018-07-28T17:46:41.363Z,29.00
2018-07-28T17:49:09.760Z,28.90
2018-07-28T17:51:38.181Z,28.90
2018-07-28T17:54:06.929Z,28.80
2018-07-28T17:56:35.391Z,28.70
2018-07-28T17:59:03.919Z,28.60
2018-07-28T18:01:32.355Z,28.50
2018-07-28T18:04:00.854Z,28.40
2018-07-28T18:06:29.400Z,28.40
2018-07-28T18:08:59.172Z,28.30
2018-07-28T18:11:27.749Z,28.20
2018-07-28T18:13:56.184Z,28.10
2018-07-28T18:16:24.668Z,28.10
2018-07-28T18:21:21.988Z,27.90
2018-07-28T18:23:51.023Z,27.70
2018-07-28T18:26:19.626Z,27.60
2018-07-28T18:28:48.090Z,27.30
2018-07-28T18:31:16.800Z,27.00
2018-07-28T18:33:45.630Z,26.80
2018-07-28T18:36:14.306Z,26.50
2018-07-28T18:38:42.769Z,26.20
2018-07-28T18:41:11.208Z,26.00
2018-07-28T18:43:39.660Z,25.90
2018-07-28T18:46:08.176Z,25.80
2018-07-28T18:48:36.894Z,25.70
2018-07-28T18:51:05.392Z,25.60
2018-07-28T18:53:34.930Z,25.60
2018-07-28T18:56:03.771Z,25.60
2018-07-28T18:58:32.287Z,25.60
2018-07-28T19:01:00.980Z,25.60
2018-07-28T19:03:29.629Z,25.60
2018-07-28T19:05:58.076Z,25.60
2018-07-28T19:08:26.517Z,25.60
2018-07-28T19:10:54.948Z,25.70
2018-07-28T19:15:57.906Z,25.70
2018-07-28T19:18:31.709Z,25.80
2018-07-28T19:21:00.311Z,25.80
2018-07-28T19:23:34.244Z,25.80
2018-07-28T19:26:02.695Z,25.80
2018-07-28T19:28:36.454Z,25.80
2018-07-28T19:31:05.320Z,25.80
2018-07-28T19:33:34.182Z,25.80
2018-07-28T19:36:09.296Z,25.80
2018-07-28T19:38:37.948Z,25.80
2018-07-28T19:41:06.597Z,25.80
2018-07-28T19:43:35.016Z,25.70
2018-07-28T19:46:03.521Z,25.70
2018-07-28T19:48:32.115Z,25.60
2018-07-28T19:51:00.648Z,25.60
2018-07-28T19:53:29.149Z,25.50
2018-07-28T19:55:57.560Z,25.40
2018-07-28T19:58:26.558Z,25.40
2018-07-28T20:00:56.278Z,25.50
2018-07-28T20:03:26.265Z,25.50
2018-07-28T20:05:54.916Z,25.50
2018-07-28T20:08:23.565Z,25.50
2018-07-28T20:10:51.971Z,25.50
2018-07-28T20:13:21.181Z,25.50
2018-07-28T20:15:49.635Z,25.50
2018-07-28T20:18:18.300Z,25.50
2018-07-28T20:20:46.985Z,25.40
2018-07-28T20:23:15.668Z,25.30
2018-07-28T20:25:44.097Z,25.30
2018-07-28T20:28:13.231Z,25.30
2018-07-28T20:30:42.002Z,25.30
2018-07-28T20:33:10.524Z,25.30
2018-07-28T20:35:39.128Z,25.30
2018-07-28T20:38:08.264Z,25.20
2018-07-28T20:40:36.884Z,25.20
2018-07-28T20:43:05.679Z,25.10
2018-07-28T20:45:34.347Z,25.10
2018-07-28T20:48:02.806Z,25.10
2018-07-28T20:50:32.232Z,25.00
2018-07-28T20:53:00.606Z,25.00
2018-07-28T20:55:29.021Z,25.00
2018-07-28T20:57:57.409Z,25.00
2018-07-28T21:00:25.840Z,25.00
2018-07-28T21:02:55.223Z,25.00
2018-07-28T21:05:23.674Z,25.10
2018-07-28T21:07:52.099Z,25.10
2018-07-28T21:10:21.629Z,25.00
2018-07-28T21:12:50.201Z,25.00
2018-07-28T21:15:18.878Z,25.00
2018-07-28T21:17:47.707Z,25.00
2018-07-28T21:20:16.149Z,25.00
2018-07-28T21:22:44.532Z,24.90
2018-07-28T21:25:13.903Z,24.90
2018-07-28T21:30:11.506Z,24.90
2018-07-28T21:32:39.939Z,24.90
2018-07-28T21:35:08.410Z,24.90
2018-07-28T21:37:36.895Z,24.90
2018-07-28T21:40:06.408Z,24.80
2018-07-28T21:42:35.055Z,24.80
2018-07-28T21:45:03.609Z,24.80
2018-07-28T21:47:32.401Z,24.80
2018-07-28T21:50:01.444Z,24.80
2018-07-28T21:52:30.661Z,24.80
2018-07-28T21:54:59.128Z,24.80
2018-07-28T21:57:27.864Z,24.80
2018-07-28T21:59:56.417Z,24.80
2018-07-28T22:02:24.901Z,24.80
2018-07-28T22:04:53.709Z,24.80
2018-07-28T22:07:22.194Z,24.80
2018-07-28T22:09:51.205Z,24.80
2018-07-28T22:12:19.775Z,24.90
2018-07-28T22:14:49.116Z,24.80
2018-07-28T22:17:17.517Z,24.80
2018-07-28T22:19:46.025Z,24.90
2018-07-28T22:22:14.702Z,24.90
2018-07-28T22:24:44.201Z,24.90
2018-07-28T22:27:12.718Z,24.90
2018-07-28T22:29:41.520Z,24.90
2018-07-28T22:32:10.197Z,24.90
2018-07-28T22:34:38.748Z,24.90
2018-07-28T22:37:07.208Z,24.90
2018-07-28T22:39:35.684Z,24.90
2018-07-28T22:42:04.139Z,24.70
2018-07-28T22:44:33.018Z,24.50
2018-07-28T22:47:01.725Z,24.40
2018-07-28T22:49:30.279Z,24.30
2018-07-28T22:51:58.708Z,24.20
2018-07-28T22:54:27.145Z,24.20
2018-07-28T22:56:55.958Z,24.20
2018-07-28T22:59:24.996Z,24.10
2018-07-28T23:01:53.420Z,24.10
2018-07-28T23:04:22.827Z,24.10
2018-07-28T23:06:51.390Z,24.10
2018-07-28T23:09:19.912Z,24.10
2018-07-28T23:11:48.354Z,24.10
2018-07-28T23:14:16.767Z,24.10
2018-07-28T23:16:45.165Z,24.10
2018-07-28T23:19:14.005Z,24.10
2018-07-28T23:21:43.400Z,24.10
2018-07-28T23:24:11.783Z,24.10
2018-07-28T23:26:40.201Z,24.00
2018-07-28T23:29:08.645Z,24.00
2018-07-28T23:31:37.086Z,24.00
2018-07-28T23:34:05.725Z,23.90
2018-07-28T23:36:34.172Z,23.90
2018-07-28T23:39:02.658Z,23.90
2018-07-28T23:41:31.219Z,23.90
2018-07-28T23:43:59.670Z,23.90
2018-07-28T23:46:28.683Z,23.90
2018-07-28T23:48:57.100Z,24.00
2018-07-28T23:51:25.528Z,23.90
2018-07-28T23:53:54.016Z,23.90
2018-07-28T23:56:22.564Z,23.80
2018-07-28T23:58:50.941Z,23.70
